createdAt,value
2023-06-26T00:01:23.998Z,20.45
2023-06-26T00:04:27.838Z,20.44
2023-06-26T00:07:32.217Z,20.43
2023-06-26T00:10:36.933Z,20.40
2023-06-26T00:13:43.028Z,20.36
2023-06-26T00:16:46.706Z,20.28
2023-06-26T00:19:50.590Z,20.25
2023-06-26T00:22:54.967Z,20.24
2023-06-26T00:25:58.702Z,20.23
2023-06-26T00:29:03.764Z,20.17
2023-06-26T00:32:09.068Z,20.18
2023-06-26T00:35:12.793Z,20.14
2023-06-26T00:38:16.981Z,20.12
2023-06-26T00:41:20.942Z,20.03
2023-06-26T00:44:26.084Z,20.00
2023-06-26T00:47:30.094Z,19.90
2023-06-26T00:50:34.277Z,19.84
2023-06-26T00:53:38.508Z,19.84
2023-06-26T00:56:43.442Z,19.82
2023-06-26T00:59:49.198Z,19.76
2023-06-26T01:02:53.127Z,19.74
2023-06-26T01:06:00.436Z,19.76
2023-06-26T01:09:05.172Z,19.73
2023-06-26T01:12:09.355Z,19.67
2023-06-26T01:15:14.856Z,19.61
2023-06-26T01:18:18.707Z,19.59
2023-06-26T01:21:22.613Z,19.59
2023-06-26T01:24:37.877Z,19.56
2023-06-26T01:27:44.944Z,19.49
2023-06-26T01:30:50.590Z,19.43
2023-06-26T01:33:55.341Z,19.40
2023-06-26T01:36:59.026Z,19.31
2023-06-26T01:40:06.508Z,19.32
2023-06-26T01:43:20.892Z,19.27
2023-06-26T01:46:29.763Z,19.25
2023-06-26T01:49:49.719Z,19.23
2023-06-26T01:53:07.217Z,19.25
2023-06-26T01:56:18.014Z,19.25
2023-06-26T01:59:24.845Z,19.18
2023-06-26T02:02:30.915Z,19.16
2023-06-26T02:05:34.942Z,19.14
2023-06-26T02:08:39.027Z,19.11
2023-06-26T02:11:42.734Z,19.10
2023-06-26T02:14:47.895Z,19.02
2023-06-26T02:17:51.660Z,19.05
2023-06-26T02:20:55.407Z,19.00
2023-06-26T02:23:59.183Z,19.02
2023-06-26T02:27:02.867Z,18.92
2023-06-26T02:30:11.015Z,18.96
2023-06-26T02:33:14.790Z,18.90
2023-06-26T02:36:18.789Z,18.90
2023-06-26T02:39:22.782Z,18.89
2023-06-26T02:42:26.615Z,18.90
2023-06-26T02:45:31.775Z,18.89
2023-06-26T02:48:35.680Z,18.84
2023-06-26T02:51:39.435Z,18.82
2023-06-26T02:54:43.232Z,18.84
2023-06-26T02:57:46.979Z,18.82
2023-06-26T03:00:52.321Z,18.76
2023-06-26T03:03:57.216Z,18.76
2023-06-26T03:07:01.154Z,18.74
2023-06-26T03:10:04.965Z,18.77
2023-06-26T03:13:08.764Z,18.88
2023-06-26T03:16:13.979Z,18.83
2023-06-26T03:19:17.683Z,18.80
2023-06-26T03:22:21.372Z,18.84
2023-06-26T03:25:25.187Z,18.83
2023-06-26T03:28:30.029Z,18.84
2023-06-26T03:31:35.774Z,18.78
2023-06-26T03:34:40.627Z,18.79
2023-06-26T03:37:44.456Z,18.87
2023-06-26T03:40:48.280Z,18.88
2023-06-26T03:43:52.131Z,18.96
2023-06-26T03:46:57.304Z,19.05
2023-06-26T03:50:00.968Z,19.52
2023-06-26T03:53:04.743Z,19.60
2023-06-26T03:56:08.484Z,19.71
2023-06-26T03:59:12.958Z,19.74
2023-06-26T04:02:18.134Z,19.98
2023-06-26T04:05:21.991Z,19.61
2023-06-26T04:08:27.898Z,19.58
2023-06-26T04:11:32.267Z,19.57
2023-06-26T04:14:36.087Z,19.53
2023-06-26T04:17:41.206Z,19.85
2023-06-26T04:21:09.864Z,19.66
2023-06-26T04:24:15.622Z,19.83
2023-06-26T04:27:19.917Z,20.28
2023-06-26T04:30:23.875Z,20.38
2023-06-26T04:33:29.597Z,20.79
2023-06-26T04:36:34.568Z,20.77
2023-06-26T04:39:39.466Z,20.95
2023-06-26T04:42:43.218Z,20.80
2023-06-26T04:45:47.153Z,21.34
2023-06-26T04:48:52.301Z,21.67
2023-06-26T04:51:56.736Z,21.79
2023-06-26T04:55:00.495Z,21.95
2023-06-26T04:58:04.595Z,22.03
2023-06-26T05:01:09.167Z,22.09
2023-06-26T05:04:14.470Z,22.36
2023-06-26T05:07:18.193Z,22.80
2023-06-26T05:10:22.798Z,22.70
2023-06-26T05:13:27.202Z,22.70
2023-06-26T05:16:31.002Z,22.94
2023-06-26T05:19:36.340Z,23.07
2023-06-26T05:22:41.680Z,23.41
2023-06-26T05:25:46.184Z,23.43
2023-06-26T05:28:52.222Z,23.40
2023-06-26T05:31:58.318Z,22.81
2023-06-26T05:35:06.223Z,23.14
2023-06-26T05:38:10.668Z,23.10
2023-06-26T05:41:15.358Z,23.05
2023-06-26T05:44:19.173Z,23.24
2023-06-26T05:47:23.168Z,23.30
2023-06-26T05:50:30.422Z,23.37
2023-06-26T05:53:34.781Z,23.93
2023-06-26T05:56:41.003Z,23.88
2023-06-26T05:59:47.124Z,24.08
2023-06-26T06:02:55.648Z,24.17
2023-06-26T06:06:00.880Z,24.87
2023-06-26T06:09:04.741Z,24.35
2023-06-26T06:12:09.899Z,24.05
2023-06-26T06:15:13.730Z,24.76
2023-06-26T06:18:17.569Z,24.80
2023-06-26T06:21:22.914Z,24.77
2023-06-26T06:24:26.637Z,24.62
2023-06-26T06:27:30.531Z,25.17
2023-06-26T06:33:45.068Z,24.74
2023-06-26T06:36:51.124Z,25.33
2023-06-26T06:39:55.132Z,25.52
2023-06-26T06:42:58.862Z,25.43
2023-06-26T06:46:02.614Z,25.93
2023-06-26T06:49:06.824Z,25.65
2023-06-26T06:52:12.036Z,25.43
2023-06-26T06:55:15.712Z,25.42
2023-06-26T06:58:21.291Z,25.27
2023-06-26T07:01:24.951Z,25.96
2023-06-26T07:04:28.825Z,26.01
2023-06-26T07:07:36.110Z,25.81
2023-06-26T07:10:40.098Z,25.92
2023-06-26T07:13:46.283Z,25.88
2023-06-26T07:16:50.121Z,25.85
2023-06-26T07:19:54.040Z,25.61
2023-06-26T07:22:59.287Z,26.23
2023-06-26T07:26:03.107Z,25.70
2023-06-26T07:29:07.134Z,26.03
2023-06-26T07:32:13.166Z,25.67
2023-06-26T07:35:21.585Z,25.99
2023-06-26T07:38:26.724Z,25.95
2023-06-26T07:41:32.534Z,26.19
2023-06-26T07:44:36.360Z,25.70
2023-06-26T07:47:40.951Z,25.66
2023-06-26T07:50:44.704Z,25.89
2023-06-26T07:53:50.035Z,26.02
2023-06-26T07:56:59.415Z,26.63
2023-06-26T08:00:03.315Z,26.47
2023-06-26T08:03:10.579Z,26.61
2023-06-26T08:06:16.730Z,27.02
2023-06-26T08:09:24.638Z,25.93
2023-06-26T08:12:28.429Z,25.27
2023-06-26T08:15:36.841Z,24.54
2023-06-26T08:18:40.589Z,24.61
2023-06-26T08:21:45.658Z,23.86
2023-06-26T08:24:50.752Z,24.10
2023-06-26T08:27:55.207Z,24.76
2023-06-26T08:30:58.963Z,25.05
2023-06-26T08:34:02.892Z,24.92
2023-06-26T08:37:10.544Z,23.80
2023-06-26T08:40:19.328Z,23.18
2023-06-26T08:43:24.469Z,22.71
2023-06-26T08:46:28.719Z,22.16
2023-06-26T08:49:45.397Z,21.14
2023-06-26T08:52:57.049Z,20.02
2023-06-26T08:56:05.697Z,19.33
2023-06-26T08:59:11.408Z,19.30
2023-06-26T09:02:15.891Z,19.24
2023-06-26T09:05:20.350Z,19.20
2023-06-26T09:08:24.195Z,19.08
2023-06-26T09:11:29.610Z,19.29
2023-06-26T09:14:33.539Z,19.68
2023-06-26T09:17:42.908Z,20.03
2023-06-26T09:20:47.224Z,20.14
2023-06-26T09:23:51.971Z,20.28
2023-06-26T09:26:57.255Z,20.17
2023-06-26T09:30:01.810Z,20.54
2023-06-26T09:33:18.151Z,20.45
2023-06-26T09:36:23.332Z,20.84
2023-06-26T09:39:27.564Z,21.28
2023-06-26T09:42:33.172Z,21.38
2023-06-26T09:45:38.597Z,21.10
2023-06-26T09:48:42.364Z,21.71
2023-06-26T09:51:46.213Z,21.69
2023-06-26T09:54:50.799Z,22.16
2023-06-26T09:58:04.598Z,21.43
2023-06-26T10:01:10.851Z,21.50
2023-06-26T10:04:15.603Z,22.16
2023-06-26T10:07:20.522Z,22.06
2023-06-26T10:10:27.078Z,22.02
2023-06-26T10:13:40.938Z,22.53
2023-06-26T10:16:47.093Z,22.23
2023-06-26T10:19:52.657Z,22.19
2023-06-26T10:23:02.492Z,22.26
2023-06-26T10:26:10.102Z,22.02
2023-06-26T10:29:19.839Z,22.17
2023-06-26T10:32:27.892Z,21.88
2023-06-26T10:35:33.605Z,22.48
2023-06-26T10:38:53.139Z,21.80
2023-06-26T10:42:11.828Z,22.08
2023-06-26T10:45:21.850Z,21.80
2023-06-26T10:48:31.699Z,21.71
2023-06-26T10:51:35.453Z,21.61
2023-06-26T10:54:41.360Z,21.94
2023-06-26T10:57:50.511Z,22.23
2023-06-26T11:01:23.559Z,22.24
2023-06-26T11:04:42.746Z,22.64
2023-06-26T11:08:06.718Z,22.58
2023-06-26T11:11:10.575Z,22.25
2023-06-26T11:14:14.956Z,22.46
2023-06-26T11:17:22.058Z,22.26
2023-06-26T11:20:25.997Z,22.65
2023-06-26T11:23:30.292Z,22.94
2023-06-26T11:26:40.454Z,22.65
2023-06-26T11:29:51.008Z,22.31
2023-06-26T11:33:05.357Z,23.05
2023-06-26T11:36:12.361Z,22.59
2023-06-26T11:39:16.113Z,22.14
2023-06-26T11:42:20.107Z,22.57
2023-06-26T11:45:35.246Z,22.40
2023-06-26T11:48:41.531Z,22.91
2023-06-26T11:51:49.231Z,22.90
2023-06-26T11:54:53.031Z,22.52
2023-06-26T11:58:00.015Z,22.59
2023-06-26T12:01:03.980Z,22.83
2023-06-26T12:04:18.264Z,22.96
2023-06-26T12:07:25.263Z,23.30
2023-06-26T12:10:31.064Z,22.74
2023-06-26T12:13:36.921Z,22.72
2023-06-26T12:16:41.881Z,22.78
2023-06-26T12:19:50.864Z,22.79
2023-06-26T12:22:54.758Z,23.12
2023-06-26T12:25:58.432Z,22.85
2023-06-26T12:29:07.340Z,23.16
2023-06-26T12:32:12.885Z,23.34
2023-06-26T12:35:18.375Z,22.98
2023-06-26T12:38:22.631Z,22.28
2023-06-26T12:41:27.549Z,22.50
2023-06-26T12:44:34.001Z,22.59
2023-06-26T12:47:39.601Z,23.00
2023-06-26T12:50:49.120Z,23.09
2023-06-26T12:53:53.383Z,22.82
2023-06-26T12:56:57.333Z,22.31
2023-06-26T13:00:01.681Z,22.29
2023-06-26T13:03:09.259Z,22.35
2023-06-26T13:06:16.355Z,22.31
2023-06-26T13:09:20.282Z,22.77
2023-06-26T13:12:24.119Z,22.65
2023-06-26T13:15:28.197Z,23.11
2023-06-26T13:18:31.884Z,23.08
2023-06-26T13:21:38.066Z,23.22
2023-06-26T13:24:42.324Z,23.42
2023-06-26T13:27:46.158Z,22.85
2023-06-26T13:30:50.512Z,22.61
2023-06-26T13:33:54.626Z,22.42
2023-06-26T13:37:02.127Z,22.56
2023-06-26T13:40:10.616Z,22.78
2023-06-26T13:43:15.168Z,22.71
2023-06-26T13:46:21.610Z,22.65
2023-06-26T13:49:25.402Z,23.15
2023-06-26T13:52:30.583Z,23.14
2023-06-26T13:55:35.051Z,22.98
2023-06-26T13:58:39.750Z,23.16
2023-06-26T14:01:45.285Z,22.23
2023-06-26T14:04:49.150Z,22.25
2023-06-26T14:07:56.047Z,22.16
2023-06-26T14:11:02.359Z,22.48
2023-06-26T14:14:06.189Z,22.61
2023-06-26T14:17:11.869Z,22.20
2023-06-26T14:20:15.905Z,22.19
2023-06-26T14:23:21.086Z,22.27
2023-06-26T14:26:24.844Z,21.98
2023-06-26T14:29:28.553Z,21.86
2023-06-26T14:32:32.425Z,21.73
2023-06-26T14:35:36.949Z,21.23
2023-06-26T14:38:42.010Z,21.32
2023-06-26T14:41:47.513Z,21.33
2023-06-26T14:44:52.723Z,21.25
2023-06-26T14:47:57.101Z,21.45
2023-06-26T14:51:02.131Z,21.28
2023-06-26T14:54:07.361Z,21.47
2023-06-26T14:57:12.243Z,21.38
2023-06-26T15:00:18.257Z,21.62
2023-06-26T15:03:22.083Z,21.83
2023-06-26T15:06:25.998Z,21.92
2023-06-26T15:09:33.168Z,21.44
2023-06-26T15:12:37.313Z,21.55
2023-06-26T15:15:52.737Z,21.13
2023-06-26T15:18:56.556Z,21.03
2023-06-26T15:22:00.234Z,20.95
2023-06-26T15:25:06.559Z,20.90
2023-06-26T15:28:10.834Z,20.94
2023-06-26T15:31:16.242Z,20.71
2023-06-26T15:34:19.883Z,20.78
2023-06-26T15:37:23.591Z,20.84
2023-06-26T15:40:28.726Z,20.64
2023-06-26T15:43:33.789Z,20.50
2023-06-26T15:46:37.576Z,20.56
2023-06-26T15:49:41.495Z,20.78
2023-06-26T15:52:45.334Z,21.14
2023-06-26T15:55:50.595Z,20.90
2023-06-26T15:58:54.280Z,20.73
2023-06-26T16:01:58.089Z,20.60
2023-06-26T16:05:02.665Z,20.93
2023-06-26T16:08:07.251Z,20.79
2023-06-26T16:11:12.669Z,20.64
2023-06-26T16:14:16.941Z,20.60
2023-06-26T16:17:20.632Z,20.99
2023-06-26T16:20:24.603Z,21.18
2023-06-26T16:23:28.783Z,21.23
2023-06-26T16:26:34.095Z,20.95
2023-06-26T16:29:37.863Z,21.32
2023-06-26T16:32:41.584Z,21.20
2023-06-26T16:35:45.835Z,20.84
2023-06-26T16:38:49.769Z,20.96
2023-06-26T16:41:56.218Z,20.53
2023-06-26T16:45:00.326Z,20.66
2023-06-26T16:48:04.280Z,21.02
2023-06-26T16:51:08.775Z,20.80
2023-06-26T16:54:12.539Z,21.24
2023-06-26T16:57:17.760Z,20.73
2023-06-26T17:00:21.915Z,20.86
2023-06-26T17:03:25.710Z,20.81
2023-06-26T17:06:30.064Z,20.50
2023-06-26T17:09:33.878Z,20.61
2023-06-26T17:12:40.687Z,20.26
2023-06-26T17:15:51.459Z,19.77
2023-06-26T17:18:55.198Z,19.52
2023-06-26T17:22:00.035Z,19.60
2023-06-26T17:25:05.734Z,19.67
2023-06-26T17:28:10.971Z,20.17
2023-06-26T17:31:14.793Z,19.73
2023-06-26T17:34:18.461Z,19.80
2023-06-26T17:37:24.597Z,19.61
2023-06-26T17:40:28.291Z,19.59
2023-06-26T17:43:33.488Z,19.23
2023-06-26T17:46:37.392Z,19.32
2023-06-26T17:49:41.650Z,19.68
2023-06-26T17:52:45.403Z,19.48
2023-06-26T17:55:49.208Z,19.26
2023-06-26T17:58:54.222Z,18.94
2023-06-26T18:02:00.076Z,18.92
2023-06-26T18:05:04.023Z,18.94
2023-06-26T18:08:07.943Z,18.81
2023-06-26T18:11:11.590Z,18.75
2023-06-26T18:14:17.105Z,18.70
2023-06-26T18:17:20.824Z,18.64
2023-06-26T18:20:24.786Z,18.68
2023-06-26T18:23:28.502Z,18.67
2023-06-26T18:26:33.883Z,18.73
2023-06-26T18:29:39.849Z,18.55
2023-06-26T18:32:45.585Z,18.41
2023-06-26T18:35:49.258Z,18.19
2023-06-26T18:38:52.990Z,18.16
2023-06-26T18:41:56.695Z,18.04
2023-06-26T18:45:01.669Z,17.96
2023-06-26T18:48:06.462Z,17.99
2023-06-26T18:51:12.973Z,17.94
2023-06-26T18:54:18.446Z,18.00
2023-06-26T18:57:22.237Z,18.18
2023-06-26T19:00:29.281Z,18.09
2023-06-26T19:03:33.012Z,18.00
2023-06-26T19:06:36.763Z,17.95
2023-06-26T19:09:40.419Z,17.92
2023-06-26T19:12:44.569Z,17.82
2023-06-26T19:15:50.646Z,17.75
2023-06-26T19:18:55.327Z,17.65
2023-06-26T19:22:00.159Z,17.58
2023-06-26T19:25:04.205Z,17.51
2023-06-26T19:28:07.900Z,17.44
2023-06-26T19:31:13.509Z,17.40
2023-06-26T19:34:17.206Z,17.29
2023-06-26T19:37:20.842Z,17.22
2023-06-26T19:40:24.901Z,17.11
2023-06-26T19:43:28.541Z,17.15
2023-06-26T19:46:33.660Z,17.09
2023-06-26T19:49:37.976Z,17.04
2023-06-26T19:52:42.696Z,16.93
2023-06-26T19:55:46.455Z,16.85
2023-06-26T19:58:50.011Z,16.81
2023-06-26T20:01:55.101Z,16.68
2023-06-26T20:04:58.922Z,16.64
2023-06-26T20:08:03.705Z,16.56
2023-06-26T20:11:08.238Z,16.47
2023-06-26T20:14:11.910Z,16.35
2023-06-26T20:17:17.074Z,16.31
2023-06-26T20:20:20.844Z,16.23
2023-06-26T20:23:24.507Z,16.26
2023-06-26T20:26:28.222Z,16.08
2023-06-26T20:29:32.240Z,16.02
2023-06-26T20:32:37.745Z,16.05
2023-06-26T20:35:42.039Z,15.97
2023-06-26T20:38:45.908Z,15.97
2023-06-26T20:41:50.529Z,15.82
2023-06-26T20:44:58.253Z,15.76
2023-06-26T20:48:04.194Z,15.72
2023-06-26T20:51:08.976Z,15.64
2023-06-26T20:54:13.856Z,15.61
2023-06-26T20:57:18.402Z,15.55
2023-06-26T21:00:24.779Z,15.50
2023-06-26T21:03:30.242Z,15.52
2023-06-26T21:06:33.979Z,15.50
2023-06-26T21:09:37.758Z,15.29
2023-06-26T21:12:41.512Z,15.32
2023-06-26T21:15:45.845Z,15.33
2023-06-26T21:18:50.949Z,15.29
2023-06-26T21:21:55.034Z,15.25
2023-06-26T21:24:58.721Z,15.16
2023-06-26T21:28:02.422Z,15.17
2023-06-26T21:31:06.198Z,15.06
2023-06-26T21:34:12.321Z,15.03
2023-06-26T21:37:16.166Z,15.01
2023-06-26T21:40:19.860Z,15.03
2023-06-26T21:43:23.517Z,15.00
2023-06-26T21:46:27.284Z,14.86
2023-06-26T21:49:33.350Z,14.87
2023-06-26T21:52:37.498Z,14.85
2023-06-26T21:55:41.429Z,14.77
2023-06-26T21:58:45.596Z,14.78
2023-06-26T22:01:49.339Z,14.74
2023-06-26T22:04:54.408Z,14.57
2023-06-26T22:07:58.275Z,14.61
2023-06-26T22:11:02.039Z,14.54
2023-06-26T22:14:05.898Z,14.60
2023-06-26T22:17:09.639Z,14.57
2023-06-26T22:20:16.480Z,14.59
2023-06-26T22:23:20.208Z,14.51
2023-06-26T22:26:23.994Z,14.55
2023-06-26T22:29:27.594Z,14.48
2023-06-26T22:32:31.308Z,14.39
2023-06-26T22:35:36.470Z,14.37
2023-06-26T22:38:40.124Z,14.39
2023-06-26T22:41:44.359Z,14.38
2023-06-26T22:44:47.958Z,14.35
2023-06-26T22:47:51.801Z,14.44
2023-06-26T22:50:58.119Z,14.27
2023-06-26T22:54:02.219Z,14.28
2023-06-26T22:57:06.764Z,14.27
2023-06-26T23:00:12.283Z,14.18
2023-06-26T23:03:16.013Z,14.23
2023-06-26T23:06:23.085Z,14.19
2023-06-26T23:09:26.836Z,14.22
2023-06-26T23:12:30.685Z,14.20
2023-06-26T23:15:40.555Z,14.14
2023-06-26T23:18:44.636Z,14.14
2023-06-26T23:21:49.659Z,14.05
2023-06-26T23:24:58.729Z,13.93
2023-06-26T23:28:04.126Z,13.99
2023-06-26T23:31:07.891Z,13.97
2023-06-26T23:34:13.889Z,14.02
2023-06-26T23:37:27.167Z,13.96
2023-06-26T23:40:33.462Z,13.96
2023-06-26T23:43:37.426Z,13.88
2023-06-26T23:46:42.770Z,13.85
2023-06-26T23:49:46.545Z,13.74
2023-06-26T23:52:51.605Z,13.82
2023-06-26T23:55:55.299Z,13.81
2023-06-26T23:58:59.413Z,13.80
